createdAt,value
2022-08-22T00:00:55.929Z,21.81
2022-08-22T00:02:10.130Z,21.72
2022-08-22T00:02:42.056Z,22.98
2022-08-22T00:02:48.856Z,22.59
2022-08-22T00:02:52.693Z,22.86
2022-08-22T00:02:59.713Z,21.58
2022-08-22T00:03:02.037Z,21.97
2022-08-22T00:03:31.590Z,21.74
2022-08-22T00:05:01.028Z,21.72
2022-08-22T00:06:39.166Z,21.67
2022-08-22T00:07:53.806Z,21.69
2022-08-22T00:09:06.128Z,21.68
2022-08-22T00:10:25.278Z,21.66
2022-08-22T00:11:38.395Z,21.64
2022-08-22T00:12:50.746Z,21.67
2022-08-22T00:14:13.665Z,21.66
2022-08-22T00:15:43.159Z,21.66
2022-08-22T00:17:00.546Z,21.66
2022-08-22T00:18:20.553Z,21.61
2022-08-22T00:19:56.414Z,21.58
2022-08-22T00:21:16.290Z,21.55
2022-08-22T00:22:32.172Z,21.47
2022-08-22T00:23:43.505Z,21.47
2022-08-22T00:24:58.344Z,21.49
2022-08-22T00:26:31.750Z,21.51
2022-08-22T00:27:53.025Z,21.53
2022-08-22T00:29:15.721Z,21.48
2022-08-22T00:30:18.688Z,21.51
2022-08-22T00:31:24.501Z,21.54
2022-08-22T00:32:33.027Z,21.56
2022-08-22T00:33:48.230Z,21.43
2022-08-22T00:35:02.757Z,21.56
2022-08-22T00:36:16.481Z,21.46
2022-08-22T00:37:46.296Z,21.54
2022-08-22T00:39:07.758Z,21.52
2022-08-22T00:40:30.539Z,21.56
2022-08-22T00:41:49.605Z,21.53
2022-08-22T00:43:32.742Z,21.56
2022-08-22T00:45:12.303Z,21.56
2022-08-22T00:46:32.485Z,21.47
2022-08-22T00:48:03.887Z,21.40
2022-08-22T00:49:21.977Z,21.38
2022-08-22T00:50:52.161Z,21.31
2022-08-22T00:51:56.522Z,21.27
2022-08-22T00:53:00.873Z,21.22
2022-08-22T00:54:21.628Z,21.26
2022-08-22T00:55:41.731Z,21.29
2022-08-22T00:57:31.574Z,21.32
2022-08-22T00:58:57.619Z,21.32
2022-08-22T01:00:14.184Z,21.35
2022-08-22T01:01:26.544Z,21.34
2022-08-22T01:02:56.862Z,21.36
2022-08-22T01:04:13.850Z,21.34
2022-08-22T01:05:33.289Z,21.31
2022-08-22T01:06:40.741Z,21.30
2022-08-22T01:08:01.645Z,21.33
2022-08-22T01:09:14.016Z,21.35
2022-08-22T01:10:52.460Z,21.34
2022-08-22T01:12:23.934Z,21.32
2022-08-22T01:13:28.034Z,21.30
2022-08-22T01:14:38.790Z,21.32
2022-08-22T01:15:42.515Z,21.27
2022-08-22T01:17:01.965Z,21.31
2022-08-22T01:18:25.080Z,21.33
2022-08-22T01:20:00.867Z,21.26
2022-08-22T01:21:30.350Z,21.30
2022-08-22T01:22:31.997Z,21.29
2022-08-22T01:24:08.937Z,21.23
2022-08-22T01:25:57.288Z,21.20
2022-08-22T01:27:19.336Z,21.20
2022-08-22T01:28:45.171Z,21.18
2022-08-22T01:30:31.770Z,21.18
2022-08-22T01:31:51.718Z,21.14
2022-08-22T01:33:19.355Z,21.08
2022-08-22T01:34:36.126Z,21.10
2022-08-22T01:36:02.678Z,21.08
2022-08-22T01:37:23.866Z,21.11
2022-08-22T01:38:48.130Z,21.10
2022-08-22T01:40:31.022Z,21.09
2022-08-22T01:41:46.319Z,21.10
2022-08-22T01:43:12.237Z,21.09
2022-08-22T01:44:53.042Z,21.07
2022-08-22T01:46:11.740Z,21.09
2022-08-22T01:47:17.949Z,21.08
2022-08-22T01:48:31.281Z,21.04
2022-08-22T01:50:02.237Z,21.03
2022-08-22T01:51:17.767Z,21.03
2022-08-22T01:52:43.853Z,20.98
2022-08-22T01:54:27.175Z,20.95
2022-08-22T01:55:44.829Z,20.81
2022-08-22T01:56:47.500Z,20.86
2022-08-22T01:57:56.168Z,20.87
2022-08-22T01:59:04.821Z,20.82
2022-08-22T02:00:17.647Z,20.94
2022-08-22T02:01:53.309Z,20.96
2022-08-22T02:03:28.126Z,20.99
2022-08-22T02:04:34.499Z,20.94
2022-08-22T02:06:09.987Z,21.00
2022-08-22T02:07:31.832Z,20.95
2022-08-22T02:09:02.926Z,20.97
2022-08-22T02:10:25.577Z,21.03
2022-08-22T02:11:52.405Z,21.03
2022-08-22T02:13:03.350Z,21.02
2022-08-22T02:14:21.467Z,21.07
2022-08-22T02:15:38.485Z,21.07
2022-08-22T02:16:47.530Z,21.06
2022-08-22T02:18:09.110Z,21.06
2022-08-22T02:19:10.752Z,21.08
2022-08-22T02:20:25.188Z,21.00
2022-08-22T02:21:43.094Z,21.03
2022-08-22T02:23:04.306Z,21.10
2022-08-22T02:24:16.712Z,21.12
2022-08-22T02:25:25.801Z,21.00
2022-08-22T02:26:51.720Z,20.98
2022-08-22T02:28:05.682Z,21.08
2022-08-22T02:29:21.302Z,21.08
2022-08-22T02:30:42.321Z,21.08
2022-08-22T02:31:56.887Z,21.00
2022-08-22T02:33:12.802Z,21.09
2022-08-22T02:34:47.574Z,21.04
2022-08-22T02:36:00.044Z,20.99
2022-08-22T02:37:10.613Z,21.10
2022-08-22T02:38:40.041Z,21.05
2022-08-22T02:40:05.183Z,21.05
2022-08-22T02:41:14.383Z,21.08
2022-08-22T02:42:34.830Z,21.08
2022-08-22T02:43:45.051Z,21.07
2022-08-22T02:45:00.519Z,21.07
2022-08-22T02:46:14.368Z,21.07
2022-08-22T02:47:29.662Z,21.00
2022-08-22T02:49:12.210Z,21.04
2022-08-22T02:50:24.607Z,21.08
2022-08-22T02:51:50.098Z,21.06
2022-08-22T02:53:05.594Z,21.07
2022-08-22T02:54:45.606Z,21.04
2022-08-22T02:56:03.621Z,21.03
2022-08-22T02:57:14.871Z,21.04
2022-08-22T02:58:42.189Z,21.00
2022-08-22T03:00:32.004Z,20.98
2022-08-22T03:01:40.861Z,21.00
2022-08-22T03:02:45.887Z,21.00
2022-08-22T03:03:48.762Z,20.95
2022-08-22T03:04:57.662Z,21.01
2022-08-22T03:06:05.576Z,21.02
2022-08-22T03:07:22.111Z,20.99
2022-08-22T03:08:31.940Z,20.86
2022-08-22T03:09:56.557Z,20.78
2022-08-22T03:11:24.574Z,20.56
2022-08-22T03:12:32.730Z,20.44
2022-08-22T03:13:59.367Z,20.36
2022-08-22T03:15:29.129Z,20.32
2022-08-22T03:17:11.000Z,20.18
2022-08-22T03:18:12.672Z,20.21
2022-08-22T03:19:27.834Z,20.13
2022-08-22T03:21:11.576Z,20.02
2022-08-22T03:22:19.061Z,20.06
2022-08-22T03:23:34.251Z,20.07
2022-08-22T03:24:38.802Z,20.08
2022-08-22T03:25:49.951Z,20.11
2022-08-22T03:27:10.112Z,20.07
2022-08-22T03:28:59.018Z,20.03
2022-08-22T03:30:07.489Z,19.97
2022-08-22T03:31:21.087Z,19.88
2022-08-22T03:32:44.351Z,20.01
2022-08-22T03:34:14.904Z,20.01
2022-08-22T03:35:35.022Z,20.10
2022-08-22T03:36:37.599Z,20.11
2022-08-22T03:37:43.129Z,20.19
2022-08-22T03:39:17.412Z,20.23
2022-08-22T03:40:32.554Z,20.24
2022-08-22T03:42:11.227Z,20.16
2022-08-22T03:43:40.168Z,20.24
2022-08-22T03:45:26.936Z,20.17
2022-08-22T03:47:13.357Z,20.00
2022-08-22T03:48:44.932Z,20.13
2022-08-22T03:49:59.498Z,20.08
2022-08-22T03:51:10.677Z,20.06
2022-08-22T03:52:34.073Z,20.02
2022-08-22T03:54:03.600Z,20.01
2022-08-22T03:55:34.816Z,20.03
2022-08-22T03:56:45.061Z,20.02
2022-08-22T03:58:12.005Z,20.04
2022-08-22T03:59:51.505Z,20.08
2022-08-22T04:01:11.295Z,20.11
2022-08-22T04:02:41.910Z,20.11
2022-08-22T04:04:23.218Z,20.10
2022-08-22T04:05:32.393Z,20.11
2022-08-22T04:07:32.443Z,20.01
2022-08-22T04:09:02.936Z,19.90
2022-08-22T04:10:17.541Z,19.86
2022-08-22T04:11:37.548Z,19.94
2022-08-22T04:12:44.983Z,19.89
2022-08-22T04:13:49.324Z,19.88
2022-08-22T04:15:16.429Z,19.74
2022-08-22T04:16:49.355Z,19.83
2022-08-22T04:18:03.477Z,19.95
2022-08-22T04:19:10.913Z,19.96
2022-08-22T04:20:21.246Z,19.99
2022-08-22T04:22:08.265Z,20.06
2022-08-22T04:23:22.135Z,20.16
2022-08-22T04:24:51.966Z,20.22
2022-08-22T04:26:01.866Z,20.31
2022-08-22T04:27:21.901Z,20.37
2022-08-22T04:28:36.247Z,20.47
2022-08-22T04:29:47.056Z,20.55
2022-08-22T04:31:05.104Z,20.58
2022-08-22T04:32:15.156Z,20.79
2022-08-22T04:33:26.545Z,20.94
2022-08-22T04:34:37.421Z,21.11
2022-08-22T04:35:45.726Z,21.18
2022-08-22T04:36:54.573Z,21.38
2022-08-22T04:38:14.580Z,21.55
2022-08-22T04:39:21.385Z,21.72
2022-08-22T04:40:34.481Z,21.89
2022-08-22T04:41:48.937Z,22.05
2022-08-22T04:43:06.699Z,22.14
2022-08-22T04:44:17.429Z,22.39
2022-08-22T04:45:25.062Z,22.52
2022-08-22T04:46:41.856Z,22.67
2022-08-22T04:47:56.950Z,22.77
2022-08-22T04:49:17.611Z,22.91
2022-08-22T04:50:26.160Z,23.06
2022-08-22T04:51:39.642Z,23.26
2022-08-22T04:52:55.153Z,23.48
2022-08-22T04:53:56.847Z,23.65
2022-08-22T04:55:18.083Z,23.78
2022-08-22T04:56:37.949Z,23.93
2022-08-22T04:57:48.512Z,24.07
2022-08-22T04:59:03.061Z,24.17
2022-08-22T05:00:08.481Z,24.30
2022-08-22T05:01:16.626Z,24.40
2022-08-22T05:02:25.217Z,24.44
2022-08-22T05:03:30.303Z,24.63
2022-08-22T05:04:43.568Z,24.89
2022-08-22T05:05:48.688Z,25.07
2022-08-22T05:06:54.316Z,25.18
2022-08-22T05:07:59.982Z,25.47
2022-08-22T05:09:12.915Z,25.66
2022-08-22T05:10:23.078Z,25.85
2022-08-22T05:11:25.014Z,25.90
2022-08-22T05:12:40.645Z,26.12
2022-08-22T05:13:50.957Z,26.29
2022-08-22T05:15:05.588Z,26.48
2022-08-22T05:16:19.146Z,26.70
2022-08-22T05:17:24.837Z,26.81
2022-08-22T05:18:42.028Z,27.03
2022-08-22T05:19:50.777Z,27.25
2022-08-22T05:20:54.482Z,27.37
2022-08-22T05:21:56.903Z,27.52
2022-08-22T05:23:17.641Z,27.62
2022-08-22T05:24:27.980Z,27.80
2022-08-22T05:25:36.369Z,27.88
2022-08-22T05:26:42.509Z,28.00
2022-08-22T05:27:56.264Z,28.20
2022-08-22T05:29:03.480Z,28.31
2022-08-22T05:30:11.795Z,28.42
2022-08-22T05:31:23.223Z,28.60
2022-08-22T05:32:32.862Z,28.68
2022-08-22T05:33:41.750Z,28.76
2022-08-22T05:34:46.800Z,28.95
2022-08-22T05:35:58.453Z,29.02
2022-08-22T05:37:14.410Z,29.21
2022-08-22T05:38:20.950Z,29.36
2022-08-22T05:39:27.912Z,29.44
2022-08-22T05:40:33.294Z,29.55
2022-08-22T05:41:37.564Z,29.69
2022-08-22T05:42:39.273Z,29.65
2022-08-22T05:43:44.151Z,29.59
2022-08-22T05:44:46.206Z,29.62
2022-08-22T05:45:49.194Z,29.64
2022-08-22T05:47:00.115Z,29.60
2022-08-22T05:48:11.967Z,29.41
2022-08-22T05:49:36.087Z,29.43
2022-08-22T05:50:37.832Z,29.40
2022-08-22T05:51:48.492Z,29.25
2022-08-22T05:53:11.021Z,29.10
2022-08-22T05:54:20.128Z,28.99
2022-08-22T05:55:28.224Z,28.90
2022-08-22T05:56:38.417Z,28.91
2022-08-22T05:57:46.520Z,28.85
2022-08-22T05:58:53.894Z,28.89
2022-08-22T06:00:10.418Z,28.86
2022-08-22T06:01:35.611Z,28.92
2022-08-22T06:03:15.032Z,28.86
2022-08-22T06:04:52.500Z,28.86
2022-08-22T06:06:03.512Z,28.87
2022-08-22T06:07:17.042Z,28.85
2022-08-22T06:08:25.169Z,28.88
2022-08-22T06:09:48.333Z,28.84
2022-08-22T06:10:55.744Z,28.84
2022-08-22T06:12:21.712Z,28.85
2022-08-22T06:13:41.920Z,28.83
2022-08-22T06:14:52.739Z,28.79
2022-08-22T06:15:57.597Z,28.75
2022-08-22T06:17:10.331Z,28.69
2022-08-22T06:18:16.961Z,28.72
2022-08-22T06:19:20.276Z,28.74
2022-08-22T06:20:28.712Z,28.75
2022-08-22T06:21:39.301Z,28.73
2022-08-22T06:22:51.241Z,28.75
2022-08-22T06:24:01.378Z,28.77
2022-08-22T06:25:12.983Z,28.75
2022-08-22T06:26:20.450Z,28.69
2022-08-22T06:27:27.070Z,28.53
2022-08-22T06:28:55.084Z,28.45
2022-08-22T06:30:04.107Z,28.51
2022-08-22T06:31:08.421Z,28.51
2022-08-22T06:32:16.977Z,28.51
2022-08-22T06:33:42.373Z,28.53
2022-08-22T06:34:47.829Z,28.56
2022-08-22T06:36:14.212Z,28.65
2022-08-22T06:37:25.357Z,28.61
2022-08-22T06:38:33.600Z,28.54
2022-08-22T06:39:42.957Z,28.48
2022-08-22T06:40:44.794Z,28.50
2022-08-22T06:41:49.370Z,28.59
2022-08-22T06:42:52.530Z,28.71
2022-08-22T06:43:55.692Z,28.89
2022-08-22T06:45:07.600Z,28.99
2022-08-22T06:46:12.396Z,29.09
2022-08-22T06:47:23.486Z,29.19
2022-08-22T06:48:25.295Z,29.24
2022-08-22T06:49:30.447Z,29.18
2022-08-22T06:50:35.205Z,29.13
2022-08-22T06:51:39.056Z,29.33
2022-08-22T06:53:19.731Z,29.48
2022-08-22T06:54:26.541Z,29.59
2022-08-22T06:55:30.212Z,29.86
2022-08-22T06:56:44.211Z,30.13
2022-08-22T06:57:53.877Z,30.39
2022-08-22T06:58:59.756Z,30.74
2022-08-22T07:00:14.318Z,31.07
2022-08-22T07:01:23.857Z,31.25
2022-08-22T07:02:41.072Z,31.54
2022-08-22T07:04:07.893Z,31.89
2022-08-22T07:05:16.821Z,32.11
2022-08-22T07:06:28.518Z,32.47
2022-08-22T07:07:30.461Z,32.93
2022-08-22T07:08:38.969Z,33.06
2022-08-22T07:09:41.711Z,32.99
2022-08-22T07:10:47.804Z,33.06
2022-08-22T07:11:50.937Z,33.01
2022-08-22T07:12:56.560Z,33.15
2022-08-22T07:14:05.849Z,33.30
2022-08-22T07:15:37.466Z,33.33
2022-08-22T07:16:59.101Z,33.26
2022-08-22T07:18:05.306Z,33.31
2022-08-22T07:19:09.361Z,33.36
2022-08-22T07:20:42.303Z,33.25
2022-08-22T07:21:47.267Z,33.30
2022-08-22T07:23:13.422Z,33.25
2022-08-22T07:24:20.705Z,33.30
2022-08-22T07:25:24.519Z,33.23
2022-08-22T07:26:26.204Z,33.18
2022-08-22T07:27:48.911Z,33.09
2022-08-22T07:28:59.783Z,33.07
2022-08-22T07:30:14.850Z,33.07
2022-08-22T07:31:40.546Z,33.18
2022-08-22T07:32:54.360Z,33.27
2022-08-22T07:34:10.874Z,33.26
2022-08-22T07:35:21.776Z,33.27
2022-08-22T07:36:31.494Z,33.20
2022-08-22T07:37:52.188Z,33.00
2022-08-22T07:39:12.466Z,33.02
2022-08-22T07:40:27.182Z,33.07
2022-08-22T07:42:00.109Z,33.11
2022-08-22T07:43:15.025Z,33.08
2022-08-22T07:44:23.701Z,33.02
2022-08-22T07:45:45.655Z,32.68
2022-08-22T07:46:58.053Z,32.69
2022-08-22T07:48:19.751Z,32.69
2022-08-22T07:49:54.064Z,32.67
2022-08-22T07:51:17.758Z,32.75
2022-08-22T07:52:29.131Z,32.68
2022-08-22T07:53:44.670Z,32.64
2022-08-22T07:55:18.993Z,32.69
2022-08-22T07:56:27.850Z,32.71
2022-08-22T07:57:40.666Z,32.81
2022-08-22T07:58:45.304Z,32.88
2022-08-22T07:59:50.988Z,32.97
2022-08-22T08:00:54.553Z,33.02
2022-08-22T08:02:00.135Z,33.08
2022-08-22T08:03:06.462Z,33.29
2022-08-22T08:04:13.269Z,33.44
2022-08-22T08:05:16.320Z,33.72
2022-08-22T08:06:18.097Z,33.79
2022-08-22T08:07:23.939Z,33.69
2022-08-22T08:08:45.157Z,33.72
2022-08-22T08:09:53.121Z,33.65
2022-08-22T08:10:57.521Z,33.57
2022-08-22T08:12:02.066Z,33.72
2022-08-22T08:13:10.556Z,33.61
2022-08-22T08:14:15.597Z,33.58
2022-08-22T08:15:23.636Z,33.93
2022-08-22T08:16:29.300Z,34.02
2022-08-22T08:17:34.594Z,34.49
2022-08-22T08:18:39.286Z,34.99
2022-08-22T08:19:43.124Z,35.27
2022-08-22T08:20:51.999Z,35.51
2022-08-22T08:21:56.752Z,35.37
2022-08-22T08:22:59.628Z,34.71
2022-08-22T08:24:02.350Z,34.54
2022-08-22T08:25:07.009Z,34.28
2022-08-22T08:26:15.959Z,34.38
2022-08-22T08:27:41.197Z,34.78
2022-08-22T08:28:49.312Z,34.87
2022-08-22T08:29:59.386Z,34.64
2022-08-22T08:31:09.698Z,34.87
2022-08-22T08:32:13.396Z,34.16
2022-08-22T08:33:25.762Z,34.24
2022-08-22T08:34:32.525Z,34.26
2022-08-22T08:35:42.415Z,34.18
2022-08-22T08:37:28.831Z,34.21
2022-08-22T08:38:43.925Z,34.22
2022-08-22T08:39:52.245Z,34.12
2022-08-22T08:41:12.272Z,34.52
2022-08-22T08:42:58.396Z,34.45
2022-08-22T08:44:15.297Z,35.11
2022-08-22T08:45:45.972Z,35.48
2022-08-22T08:47:22.853Z,35.92
2022-08-22T08:48:50.444Z,36.20
2022-08-22T08:50:21.173Z,36.16
2022-08-22T08:52:00.154Z,36.31
2022-08-22T08:53:39.069Z,36.54
2022-08-22T08:55:19.714Z,36.86
2022-08-22T08:56:47.329Z,36.91
2022-08-22T08:58:17.720Z,36.45
2022-08-22T08:59:32.535Z,35.96
2022-08-22T09:01:03.852Z,35.50
2022-08-22T09:02:25.160Z,35.32
2022-08-22T09:03:37.692Z,34.99
2022-08-22T09:04:48.439Z,35.33
2022-08-22T09:05:56.124Z,35.60
2022-08-22T09:07:18.802Z,35.25
2022-08-22T09:08:55.496Z,34.97
2022-08-22T09:10:27.350Z,34.79
2022-08-22T09:12:08.625Z,35.25
2022-08-22T09:13:40.631Z,35.46
2022-08-22T09:15:14.101Z,35.30
2022-08-22T09:16:25.593Z,35.23
2022-08-22T09:17:42.597Z,35.19
2022-08-22T09:19:06.720Z,35.25
2022-08-22T09:20:26.425Z,35.10
2022-08-22T09:21:47.456Z,34.73
2022-08-22T09:23:01.048Z,34.71
2022-08-22T09:24:12.725Z,34.99
2022-08-22T09:25:38.699Z,35.36
2022-08-22T09:26:57.355Z,35.68
2022-08-22T09:28:28.490Z,36.01
2022-08-22T09:29:54.714Z,36.40
2022-08-22T09:31:46.484Z,36.69
2022-08-22T09:33:05.733Z,36.30
2022-08-22T09:34:30.019Z,36.57
2022-08-22T09:35:37.658Z,36.59
2022-08-22T09:36:48.436Z,36.71
2022-08-22T09:38:05.934Z,36.59
2022-08-22T09:39:17.968Z,36.72
2022-08-22T09:40:24.794Z,36.20
2022-08-22T09:41:41.434Z,36.17
2022-08-22T09:42:46.399Z,36.30
2022-08-22T09:44:12.942Z,36.29
2022-08-22T09:45:24.161Z,36.18
2022-08-22T09:46:36.883Z,35.91
2022-08-22T09:48:21.459Z,36.04
2022-08-22T09:49:44.877Z,36.03
2022-08-22T09:51:08.335Z,36.15
2022-08-22T09:52:33.875Z,36.32
2022-08-22T09:54:11.642Z,36.58
2022-08-22T09:55:45.482Z,36.75
2022-08-22T09:56:59.662Z,36.89
2022-08-22T09:58:32.043Z,36.67
2022-08-22T09:59:43.317Z,36.60
2022-08-22T10:00:55.514Z,36.49
2022-08-22T10:02:44.515Z,36.00
2022-08-22T10:04:23.346Z,35.39
2022-08-22T10:05:46.601Z,34.70
2022-08-22T10:07:24.067Z,34.18
2022-08-22T10:08:37.290Z,33.95
2022-08-22T10:09:57.475Z,34.04
2022-08-22T10:11:20.558Z,33.98
2022-08-22T10:12:35.759Z,34.04
2022-08-22T10:13:57.523Z,34.15
2022-08-22T10:15:33.925Z,34.30
2022-08-22T10:16:47.535Z,34.36
2022-08-22T10:18:10.459Z,34.19
2022-08-22T10:19:20.317Z,33.77
2022-08-22T10:20:29.267Z,33.69
2022-08-22T10:22:05.684Z,33.65
2022-08-22T10:23:33.414Z,33.64
2022-08-22T10:25:07.734Z,33.65
2022-08-22T10:26:22.858Z,33.56
2022-08-22T10:27:30.137Z,33.20
2022-08-22T10:28:49.471Z,32.64
2022-08-22T10:30:01.437Z,32.49
2022-08-22T10:31:21.325Z,32.13
2022-08-22T10:32:34.438Z,31.91
2022-08-22T10:34:04.486Z,31.75
2022-08-22T10:35:34.398Z,31.78
2022-08-22T10:37:07.443Z,31.74
2022-08-22T10:38:31.866Z,31.32
2022-08-22T10:39:48.117Z,31.27
2022-08-22T10:41:00.730Z,31.40
2022-08-22T10:42:35.247Z,31.48
2022-08-22T10:44:14.902Z,31.50
2022-08-22T10:45:36.177Z,31.37
2022-08-22T10:46:44.091Z,31.36
2022-08-22T10:47:54.881Z,31.36
2022-08-22T10:49:07.805Z,31.44
2022-08-22T10:50:20.116Z,31.37
2022-08-22T10:51:54.293Z,31.42
2022-08-22T10:53:29.574Z,31.11
2022-08-22T10:54:37.439Z,31.20
2022-08-22T10:55:42.396Z,31.26
2022-08-22T10:56:55.496Z,31.23
2022-08-22T10:58:13.395Z,31.19
2022-08-22T10:59:27.361Z,31.06
2022-08-22T11:00:51.450Z,30.71
2022-08-22T11:02:21.099Z,30.59
2022-08-22T11:03:42.399Z,30.45
2022-08-22T11:04:53.220Z,30.19
2022-08-22T11:06:00.472Z,30.12
2022-08-22T11:07:14.904Z,30.05
2022-08-22T11:08:20.907Z,30.02
2022-08-22T11:09:43.021Z,29.73
2022-08-22T11:11:01.719Z,29.59
2022-08-22T11:12:03.769Z,29.30
2022-08-22T11:13:21.412Z,29.28
2022-08-22T11:14:41.974Z,29.24
2022-08-22T11:16:05.266Z,29.19
2022-08-22T11:17:14.539Z,29.32
2022-08-22T11:18:35.705Z,29.31
2022-08-22T11:20:09.044Z,29.44
2022-08-22T11:21:23.722Z,29.55
2022-08-22T11:22:34.502Z,29.61
2022-08-22T11:23:45.611Z,29.73
2022-08-22T11:25:35.705Z,29.83
2022-08-22T11:27:17.747Z,29.76
2022-08-22T11:28:30.934Z,29.39
2022-08-22T11:30:03.851Z,29.48
2022-08-22T11:31:13.806Z,29.52
2022-08-22T11:32:29.097Z,29.63
2022-08-22T11:33:47.350Z,29.77
2022-08-22T11:35:16.845Z,29.88
2022-08-22T11:36:46.360Z,29.99
2022-08-22T11:37:56.389Z,30.05
2022-08-22T11:39:23.157Z,30.07
2022-08-22T11:40:49.149Z,30.16
2022-08-22T11:42:01.890Z,30.34
2022-08-22T11:43:18.224Z,30.40
2022-08-22T11:44:50.348Z,30.45
2022-08-22T11:45:57.532Z,30.46
2022-08-22T11:47:01.957Z,30.50
2022-08-22T11:48:34.013Z,30.54
2022-08-22T11:49:55.807Z,30.59
2022-08-22T11:50:57.450Z,30.60
2022-08-22T11:52:25.717Z,30.64
2022-08-22T11:53:27.369Z,30.66
2022-08-22T11:54:51.770Z,30.60
2022-08-22T11:55:56.424Z,30.56
2022-08-22T11:57:11.146Z,30.47
2022-08-22T11:58:34.883Z,30.43
2022-08-22T11:59:45.538Z,30.36
2022-08-22T12:01:04.514Z,30.26
2022-08-22T12:02:31.416Z,30.20
2022-08-22T12:03:55.691Z,30.15
2022-08-22T12:05:11.034Z,30.08
2022-08-22T12:06:24.017Z,30.16
2022-08-22T12:07:30.315Z,30.17
2022-08-22T12:08:40.840Z,30.12
2022-08-22T12:09:50.715Z,30.07
2022-08-22T12:11:35.897Z,29.97
2022-08-22T12:12:51.814Z,29.99
2022-08-22T12:14:06.362Z,29.92
2022-08-22T12:15:45.716Z,29.91
2022-08-22T12:16:56.514Z,29.84
2022-08-22T12:18:10.127Z,29.84
2022-08-22T12:19:32.892Z,29.72
2022-08-22T12:21:07.196Z,29.59
2022-08-22T12:22:16.720Z,29.46
2022-08-22T12:23:43.246Z,29.41
2022-08-22T12:25:02.742Z,29.34
2022-08-22T12:26:13.786Z,29.29
2022-08-22T12:27:36.545Z,29.22
2022-08-22T12:28:40.003Z,29.11
2022-08-22T12:29:51.284Z,29.05
2022-08-22T12:31:12.298Z,29.02
2022-08-22T12:32:38.564Z,28.99
2022-08-22T12:34:04.175Z,28.98
2022-08-22T12:35:14.626Z,28.98
2022-08-22T12:36:41.090Z,29.00
2022-08-22T12:37:53.363Z,28.86
2022-08-22T12:39:10.968Z,28.88
2022-08-22T12:40:37.255Z,28.81
2022-08-22T12:42:06.595Z,28.84
2022-08-22T12:43:26.318Z,28.79
2022-08-22T12:44:39.637Z,28.76
2022-08-22T12:45:59.909Z,28.75
2022-08-22T12:47:19.711Z,28.76
2022-08-22T12:48:52.389Z,28.73
2022-08-22T12:50:00.077Z,28.77
2022-08-22T12:51:16.791Z,28.79
2022-08-22T12:52:52.110Z,28.79
2022-08-22T12:54:29.221Z,28.77
2022-08-22T12:55:56.223Z,28.77
2022-08-22T12:56:58.513Z,28.75
2022-08-22T12:58:42.447Z,28.76
2022-08-22T12:59:48.329Z,28.68
2022-08-22T13:00:52.577Z,28.77
2022-08-22T13:01:59.587Z,28.79
2022-08-22T13:03:11.365Z,28.85
2022-08-22T13:04:19.318Z,28.87
2022-08-22T13:05:40.787Z,28.90
2022-08-22T13:07:02.833Z,28.86
2022-08-22T13:08:09.918Z,28.86
2022-08-22T13:09:18.909Z,28.86
2022-08-22T13:10:52.246Z,28.83
2022-08-22T13:12:05.080Z,28.81
2022-08-22T13:13:12.256Z,28.77
2022-08-22T13:14:24.037Z,28.65
2022-08-22T13:15:29.541Z,28.64
2022-08-22T13:16:41.807Z,28.74
2022-08-22T13:17:52.027Z,28.75
2022-08-22T13:19:07.724Z,28.62
2022-08-22T13:20:24.360Z,28.71
2022-08-22T13:21:36.259Z,28.81
2022-08-22T13:22:45.566Z,28.83
2022-08-22T13:23:53.525Z,28.77
2022-08-22T13:25:08.487Z,28.90
2022-08-22T13:26:16.413Z,28.93
2022-08-22T13:27:51.394Z,28.85
2022-08-22T13:29:39.172Z,28.90
2022-08-22T13:30:43.714Z,28.97
2022-08-22T13:31:53.070Z,29.00
2022-08-22T13:33:04.576Z,28.97
2022-08-22T13:34:22.845Z,28.95
2022-08-22T13:35:33.930Z,28.88
2022-08-22T13:36:51.671Z,28.93
2022-08-22T13:38:03.417Z,29.01
2022-08-22T13:39:19.702Z,28.99
2022-08-22T13:40:30.969Z,28.95
2022-08-22T13:41:44.235Z,29.00
2022-08-22T13:42:54.197Z,28.91
2022-08-22T13:44:05.088Z,29.01
2022-08-22T13:45:15.792Z,29.03
2022-08-22T13:46:26.009Z,28.91
2022-08-22T13:47:34.429Z,29.03
2022-08-22T13:48:52.334Z,28.93
2022-08-22T13:50:10.298Z,29.00
2022-08-22T13:51:20.573Z,28.96
2022-08-22T13:52:43.077Z,28.88
2022-08-22T13:54:02.225Z,28.79
2022-08-22T13:55:29.680Z,28.80
2022-08-22T13:56:56.412Z,28.79
2022-08-22T13:58:25.078Z,28.75
2022-08-22T13:59:52.481Z,28.73
2022-08-22T14:01:17.691Z,28.67
2022-08-22T14:02:43.489Z,28.67
2022-08-22T14:03:57.779Z,28.66
2022-08-22T14:05:05.381Z,28.62
2022-08-22T14:06:35.368Z,28.63
2022-08-22T14:08:15.522Z,28.54
2022-08-22T14:09:54.426Z,28.59
2022-08-22T14:11:11.975Z,28.56
2022-08-22T14:12:18.877Z,28.50
2022-08-22T14:13:20.545Z,28.43
2022-08-22T14:14:32.128Z,28.38
2022-08-22T14:15:44.947Z,28.28
2022-08-22T14:16:51.907Z,28.33
2022-08-22T14:18:03.362Z,28.30
2022-08-22T14:19:10.583Z,28.25
2022-08-22T14:20:32.104Z,28.16
2022-08-22T14:21:41.396Z,28.12
2022-08-22T14:22:58.952Z,28.04
2022-08-22T14:24:28.518Z,28.05
2022-08-22T14:25:36.838Z,27.95
2022-08-22T14:26:49.302Z,27.98
2022-08-22T14:27:52.609Z,27.92
2022-08-22T14:28:57.572Z,27.75
2022-08-22T14:30:04.778Z,27.73
2022-08-22T14:31:14.483Z,27.55
2022-08-22T14:32:19.437Z,27.59
2022-08-22T14:33:48.590Z,27.54
2022-08-22T14:34:58.904Z,27.37
2022-08-22T14:36:11.745Z,27.36
2022-08-22T14:37:29.030Z,27.15
2022-08-22T14:38:39.679Z,27.18
2022-08-22T14:39:59.357Z,27.02
2022-08-22T14:41:07.075Z,27.01
2022-08-22T14:42:17.790Z,26.93
2022-08-22T14:43:45.323Z,26.87
2022-08-22T14:45:06.733Z,26.80
2022-08-22T14:46:18.307Z,26.79
2022-08-22T14:47:55.659Z,26.73
2022-08-22T14:49:16.436Z,26.69
2022-08-22T14:50:38.650Z,26.62
2022-08-22T14:51:48.134Z,26.42
2022-08-22T14:53:05.765Z,26.53
2022-08-22T14:54:21.529Z,26.43
2022-08-22T14:55:26.521Z,26.47
2022-08-22T14:56:30.141Z,26.46
2022-08-22T14:57:35.976Z,26.43
2022-08-22T14:58:56.224Z,26.40
2022-08-22T14:59:59.009Z,26.39
2022-08-22T15:01:11.258Z,26.35
2022-08-22T15:02:31.958Z,26.14
2022-08-22T15:03:38.061Z,26.29
2022-08-22T15:04:47.832Z,26.17
2022-08-22T15:05:52.120Z,26.21
2022-08-22T15:06:58.515Z,26.20
2022-08-22T15:08:00.556Z,26.16
2022-08-22T15:09:08.680Z,26.12
2022-08-22T15:10:25.358Z,26.09
2022-08-22T15:11:33.236Z,26.05
2022-08-22T15:12:48.740Z,26.01
2022-08-22T15:14:20.125Z,26.00
2022-08-22T15:15:27.508Z,25.93
2022-08-22T15:16:37.339Z,25.91
2022-08-22T15:17:51.095Z,25.89
2022-08-22T15:18:53.030Z,25.88
2022-08-22T15:20:10.924Z,25.88
2022-08-22T15:21:27.685Z,25.86
2022-08-22T15:22:29.578Z,25.82
2022-08-22T15:23:32.266Z,25.81
2022-08-22T15:25:01.711Z,25.79
2022-08-22T15:26:23.148Z,25.80
2022-08-22T15:27:27.687Z,25.82
2022-08-22T15:28:49.835Z,25.76
2022-08-22T15:29:58.710Z,25.83
2022-08-22T15:31:05.741Z,25.79
2022-08-22T15:32:08.000Z,25.86
2022-08-22T15:33:25.102Z,25.87
2022-08-22T15:34:42.215Z,25.86
2022-08-22T15:35:45.817Z,25.91
2022-08-22T15:37:27.933Z,25.88
2022-08-22T15:38:36.608Z,25.91
2022-08-22T15:40:08.040Z,25.88
2022-08-22T15:41:36.929Z,25.85
2022-08-22T15:42:47.347Z,25.76
2022-08-22T15:43:52.998Z,25.84
2022-08-22T15:44:55.674Z,25.86
2022-08-22T15:46:21.290Z,25.82
2022-08-22T15:47:28.442Z,25.60
2022-08-22T15:48:36.443Z,25.60
2022-08-22T15:49:51.942Z,25.67
2022-08-22T15:51:23.945Z,25.65
2022-08-22T15:52:32.247Z,25.68
2022-08-22T15:54:01.750Z,25.64
2022-08-22T15:55:24.356Z,25.64
2022-08-22T15:56:29.529Z,25.67
2022-08-22T15:57:41.235Z,25.62
2022-08-22T15:58:49.487Z,25.63
2022-08-22T15:59:58.842Z,25.67
2022-08-22T16:01:19.063Z,25.72
2022-08-22T16:02:28.129Z,25.60
2022-08-22T16:03:33.281Z,25.63
2022-08-22T16:04:47.460Z,25.40
2022-08-22T16:05:55.599Z,25.49
2022-08-22T16:07:01.352Z,25.57
2022-08-22T16:08:25.991Z,25.60
2022-08-22T16:09:43.537Z,25.58
2022-08-22T16:11:09.711Z,25.59
2022-08-22T16:12:34.800Z,25.65
2022-08-22T16:13:40.270Z,25.67
2022-08-22T16:14:41.912Z,25.70
2022-08-22T16:15:54.123Z,25.73
2022-08-22T16:17:04.499Z,25.64
2022-08-22T16:18:06.939Z,25.72
2022-08-22T16:19:16.675Z,25.69
2022-08-22T16:20:38.290Z,25.68
2022-08-22T16:21:39.939Z,25.73
2022-08-22T16:22:56.769Z,25.77
2022-08-22T16:23:58.473Z,25.80
2022-08-22T16:25:02.933Z,25.81